This is the latest recevied weather packets stored in our database for station/object W5HKR. If no packets are shown the sender has not sent any weather packets the latest 10 day(s).
| Time | Temp. | Humidity | Pressure | Rain* | Wind** | Luminosity | Snow |
|---|---|---|---|---|---|---|---|
| 1777161798 | 18.33° C | 91% | 990.6 hPa | 0 mm | - | - | - |
| 1777161497 | 18.33° C | 91% | 990.6 hPa | 0 mm | - | - | - |
| 1777161199 | 30° C | 63% | 977.5 hPa | 0 mm | - | - | - |
| 1777160897 | 30° C | 63% | 977 hPa | 0 mm | - | - | - |
| 1777160597 | 18.33° C | 91% | 990.6 hPa | 0 mm | - | - | - |
| 1777160429 | 30.56° C | 62% | 977.2 hPa | 0 mm | - | - | - |
| 1777160297 | 30.56° C | 61% | 977.5 hPa | 0 mm | - | - | - |
| 1777159997 | 18.33° C | 91% | 990.6 hPa | 0 mm | - | - | - |
| 1777159698 | 30.56° C | 61% | 977.6 hPa | 0 mm | - | - | - |
| 1777159350 | 18.33° C | 91% | 990.6 hPa | 0 mm | - | - | - |
| 1777159098 | 31.11° C | 60% | 977.2 hPa | 0 mm | - | - | - |
| 1777158797 | 18.33° C | 91% | 990.6 hPa | 0 mm | - | - | - |
| 1777158497 | 31.67° C | 59% | 977.5 hPa | 0 mm | - | - | - |
| 1777158269 | 18.33° C | 91% | 990.6 hPa | 0 mm | - | - | - |
| 1777158197 | 18.33° C | 91% | 990.6 hPa | 0 mm | - | - | - |
| 1777157898 | 18.33° C | 91% | 990.6 hPa | 0 mm | - | - | - |
| 1777157598 | 18.33° C | 91% | 990.6 hPa | 0 mm | - | - | - |
| 1777157297 | 32.22° C | 58% | 977.3 hPa | 0 mm | - | - | - |
| 1777157190 | 32.22° C | 59% | 977.2 hPa | 0 mm | - | - | - |
| 1777156997 | 31.67° C | 59% | 977.3 hPa | 0 mm | - | - | - |
| 1777156698 | 18.33° C | 91% | 990.6 hPa | 0 mm | - | - | - |
| 1777156397 | 31.67° C | 60% | 976.8 hPa | 0 mm | - | - | - |
| 1777156098 | 31.67° C | 61% | 977.1 hPa | 0 mm | - | - | - |
| 1777155798 | 31.67° C | 60% | 977.4 hPa | 0 mm | - | - | - |
| 1777155497 | 31.67° C | 60% | 977.5 hPa | 0 mm | - | - | - |
* Rain latest hour (hover to see other rain measurements)
** Current wind speed in m/s (hover to see current wind gust speed)